createdAt,value
2022-08-29T00:01:03.904Z,28.00
2022-08-29T00:03:32.357Z,27.97
2022-08-29T00:06:02.740Z,28.00
2022-08-29T00:08:31.382Z,28.01
2022-08-29T00:10:58.291Z,27.98
2022-08-29T00:13:25.258Z,28.01
2022-08-29T00:15:51.789Z,28.00
2022-08-29T00:18:20.510Z,28.00
2022-08-29T00:20:47.445Z,28.00
2022-08-29T00:23:14.091Z,28.00
2022-08-29T00:25:40.688Z,28.00
2022-08-29T00:28:07.638Z,28.00
2022-08-29T00:30:35.291Z,27.92
2022-08-29T00:33:02.207Z,28.00
2022-08-29T00:35:32.392Z,28.00
2022-08-29T00:38:00.560Z,27.98
2022-08-29T00:40:35.388Z,27.99
2022-08-29T00:43:02.268Z,28.00
2022-08-29T00:45:29.385Z,28.00
2022-08-29T00:48:00.744Z,28.00
2022-08-29T00:50:38.652Z,28.00
2022-08-29T00:53:08.804Z,27.99
2022-08-29T00:55:37.370Z,27.99
2022-08-29T00:58:28.354Z,27.99
2022-08-29T01:00:55.347Z,27.99
2022-08-29T01:03:21.999Z,27.98
2022-08-29T01:05:48.975Z,27.98
2022-08-29T01:11:04.975Z,27.96
2022-08-29T01:13:36.281Z,27.97
2022-08-29T01:16:05.359Z,27.96
2022-08-29T01:23:17.891Z,27.96
2022-08-29T01:25:48.519Z,27.95
2022-08-29T01:28:32.175Z,27.88
2022-08-29T01:31:06.596Z,27.96
2022-08-29T01:35:58.052Z,27.95
2022-08-29T01:38:30.368Z,27.95
2022-08-29T01:40:59.327Z,27.95
2022-08-29T01:45:50.589Z,27.95
2022-08-29T01:48:18.613Z,27.91
2022-08-29T01:50:46.511Z,27.94
2022-08-29T01:53:13.880Z,27.94
2022-08-29T01:55:40.971Z,27.95
2022-08-29T01:58:09.084Z,27.95
2022-08-29T02:00:36.016Z,27.95
2022-08-29T02:03:03.411Z,27.95
2022-08-29T02:05:31.232Z,27.87
2022-08-29T02:07:58.140Z,27.95
2022-08-29T02:10:25.044Z,27.95
2022-08-29T02:12:53.729Z,27.95
2022-08-29T02:15:21.520Z,27.94
2022-08-29T02:17:48.666Z,27.95
2022-08-29T02:20:16.228Z,27.95
2022-08-29T02:22:42.920Z,27.94
2022-08-29T02:25:30.151Z,27.94
2022-08-29T02:27:57.633Z,27.93
2022-08-29T02:30:25.575Z,27.94
2022-08-29T02:32:52.919Z,27.93
2022-08-29T02:35:19.810Z,27.93
2022-08-29T02:37:47.593Z,27.93
2022-08-29T02:40:14.325Z,27.93
2022-08-29T02:42:40.980Z,27.93
2022-08-29T02:45:08.439Z,27.91
2022-08-29T02:47:38.495Z,27.91
2022-08-29T02:50:06.773Z,27.91
2022-08-29T02:52:37.106Z,27.93
2022-08-29T02:55:04.476Z,27.92
2022-08-29T02:57:31.012Z,27.91
2022-08-29T02:59:57.598Z,27.91
2022-08-29T03:02:24.328Z,27.91
2022-08-29T03:04:51.051Z,27.92
2022-08-29T03:07:17.865Z,27.92
2022-08-29T03:09:44.826Z,27.91
2022-08-29T03:12:11.380Z,27.91
2022-08-29T03:14:38.061Z,27.85
2022-08-29T03:17:05.014Z,27.90
2022-08-29T03:19:31.666Z,27.91
2022-08-29T03:22:04.131Z,27.89
2022-08-29T03:24:30.808Z,27.91
2022-08-29T03:26:58.913Z,27.83
2022-08-29T03:29:26.094Z,27.90
2022-08-29T03:31:53.783Z,27.82
2022-08-29T03:34:20.520Z,27.90
2022-08-29T03:36:47.099Z,27.89
2022-08-29T03:39:13.660Z,27.90
2022-08-29T03:41:40.507Z,27.89
2022-08-29T03:44:07.125Z,27.89
2022-08-29T03:46:35.966Z,27.89
2022-08-29T03:49:02.609Z,27.90
2022-08-29T03:51:31.509Z,27.89
2022-08-29T03:53:58.409Z,27.89
2022-08-29T03:56:26.250Z,27.88
2022-08-29T03:58:53.576Z,27.88
2022-08-29T04:01:24.371Z,27.87
2022-08-29T04:03:51.371Z,27.87
2022-08-29T04:08:34.185Z,27.88
2022-08-29T04:11:00.788Z,27.87
2022-08-29T04:13:27.343Z,27.86
2022-08-29T04:15:53.966Z,27.86
2022-08-29T04:18:21.627Z,27.07
2022-08-29T04:20:49.255Z,27.86
2022-08-29T04:23:15.988Z,27.75
2022-08-29T04:25:43.791Z,27.85
2022-08-29T04:28:12.754Z,27.83
2022-08-29T04:30:40.174Z,27.85
2022-08-29T04:33:08.095Z,27.84
2022-08-29T04:35:40.753Z,27.84
2022-08-29T04:38:08.468Z,27.84
2022-08-29T04:40:37.543Z,27.84
2022-08-29T04:43:04.251Z,27.83
2022-08-29T04:45:30.940Z,27.83
2022-08-29T04:48:00.705Z,27.84
2022-08-29T04:50:30.277Z,27.84
2022-08-29T04:52:56.913Z,27.84
2022-08-29T04:55:25.738Z,27.84
2022-08-29T04:57:56.295Z,27.83
2022-08-29T05:00:26.553Z,27.83
2022-08-29T05:02:53.141Z,27.84
2022-08-29T05:05:19.847Z,27.82
2022-08-29T05:07:46.499Z,27.82
2022-08-29T05:10:18.976Z,27.82
2022-08-29T05:12:46.417Z,27.79
2022-08-29T05:15:14.494Z,27.83
2022-08-29T05:17:41.567Z,27.82
2022-08-29T05:20:08.690Z,27.83
2022-08-29T05:22:37.743Z,27.82
2022-08-29T05:27:22.285Z,27.82
2022-08-29T05:29:51.398Z,27.83
2022-08-29T05:32:21.409Z,27.81
2022-08-29T05:34:49.728Z,27.81
2022-08-29T05:37:19.699Z,27.81
2022-08-29T05:39:47.250Z,27.76
2022-08-29T05:42:16.357Z,27.79
2022-08-29T05:44:42.989Z,27.80
2022-08-29T05:47:12.316Z,27.78
2022-08-29T05:49:41.284Z,27.79
2022-08-29T05:52:08.913Z,27.79
2022-08-29T05:54:38.541Z,27.79
2022-08-29T05:59:18.703Z,27.80
2022-08-29T06:04:14.075Z,27.80
2022-08-29T06:06:41.752Z,27.76
2022-08-29T06:09:09.260Z,27.80
2022-08-29T06:11:35.833Z,27.79
2022-08-29T06:14:02.583Z,27.81
2022-08-29T06:16:30.264Z,27.78
2022-08-29T06:18:57.234Z,27.79
2022-08-29T06:21:24.106Z,27.69
2022-08-29T06:23:51.280Z,27.80
2022-08-29T06:26:19.616Z,27.79
2022-08-29T06:28:46.755Z,27.80
2022-08-29T06:31:13.359Z,27.79
2022-08-29T06:33:40.212Z,27.79
2022-08-29T06:36:08.661Z,27.79
2022-08-29T06:40:57.472Z,27.80
2022-08-29T06:43:26.490Z,27.81
2022-08-29T06:45:53.109Z,27.82
2022-08-29T06:48:20.580Z,27.83
2022-08-29T06:50:47.260Z,27.84
2022-08-29T06:53:26.925Z,27.84
2022-08-29T06:55:55.603Z,27.85
2022-08-29T07:00:49.047Z,27.86
2022-08-29T07:03:16.876Z,27.86
2022-08-29T07:05:43.620Z,27.86
2022-08-29T07:08:10.213Z,27.87
2022-08-29T07:10:36.876Z,27.88
2022-08-29T07:13:03.689Z,27.88
2022-08-29T07:15:30.262Z,27.88
2022-08-29T07:18:00.008Z,27.89
2022-08-29T07:20:26.865Z,27.90
2022-08-29T07:22:53.389Z,27.91
2022-08-29T07:25:21.040Z,27.91
2022-08-29T07:27:52.036Z,27.91
2022-08-29T07:30:20.739Z,27.93
2022-08-29T07:32:47.472Z,27.91
2022-08-29T07:35:19.831Z,27.92
2022-08-29T07:37:57.700Z,27.91
2022-08-29T07:40:26.434Z,27.92
2022-08-29T07:42:53.375Z,27.93
2022-08-29T07:45:20.157Z,27.93
2022-08-29T07:47:46.848Z,27.71
2022-08-29T07:50:14.828Z,27.94
2022-08-29T07:52:41.481Z,27.94
2022-08-29T07:55:08.804Z,27.95
2022-08-29T07:57:39.607Z,27.88
2022-08-29T08:00:10.731Z,27.93
2022-08-29T08:02:39.037Z,27.94
2022-08-29T08:05:07.024Z,27.92
2022-08-29T08:07:35.232Z,27.92
2022-08-29T08:10:03.614Z,27.96
2022-08-29T08:12:30.582Z,27.97
2022-08-29T08:14:57.920Z,27.96
2022-08-29T08:17:27.039Z,27.94
2022-08-29T08:19:53.600Z,27.97
2022-08-29T08:22:20.265Z,27.98
2022-08-29T08:24:48.461Z,27.96
2022-08-29T08:27:15.035Z,27.86
2022-08-29T08:29:43.844Z,27.98
2022-08-29T08:32:10.420Z,27.99
2022-08-29T08:34:36.968Z,27.99
2022-08-29T08:37:07.942Z,27.99
2022-08-29T08:42:22.966Z,27.99
2022-08-29T08:45:13.251Z,28.00
2022-08-29T08:47:45.319Z,27.99
2022-08-29T08:50:18.592Z,28.00
2022-08-29T08:52:58.866Z,27.99
2022-08-29T08:55:28.363Z,27.99
2022-08-29T08:58:06.722Z,28.00
2022-08-29T09:00:43.121Z,28.00
2022-08-29T09:03:34.654Z,28.01
2022-08-29T09:06:22.400Z,28.00
2022-08-29T09:09:14.425Z,28.01
2022-08-29T09:11:54.622Z,28.01
2022-08-29T09:14:29.780Z,28.01
2022-08-29T09:17:00.350Z,28.01
2022-08-29T09:19:27.000Z,28.02
2022-08-29T09:21:59.547Z,28.02
2022-08-29T09:24:50.353Z,28.02
2022-08-29T09:27:19.555Z,28.02
2022-08-29T09:32:20.314Z,28.03
2022-08-29T09:37:36.113Z,28.03
2022-08-29T09:40:03.049Z,28.03
2022-08-29T09:42:36.459Z,28.04
2022-08-29T09:45:20.129Z,28.04
2022-08-29T09:47:46.761Z,28.03
2022-08-29T09:50:26.089Z,28.04
2022-08-29T09:52:58.534Z,28.03
2022-08-29T09:55:32.691Z,28.04
2022-08-29T09:58:10.257Z,28.04
2022-08-29T10:00:39.857Z,28.05
2022-08-29T10:03:10.712Z,28.05
2022-08-29T10:05:46.872Z,28.05
2022-08-29T10:08:37.872Z,28.05
2022-08-29T10:11:21.904Z,28.06
2022-08-29T10:13:56.088Z,28.05
2022-08-29T10:16:38.202Z,28.05
2022-08-29T10:19:11.873Z,28.05
2022-08-29T10:22:13.919Z,28.06
2022-08-29T10:24:54.356Z,28.06
2022-08-29T10:27:32.569Z,28.05
2022-08-29T10:30:08.167Z,28.06
2022-08-29T10:32:43.927Z,28.06
2022-08-29T10:35:29.752Z,28.05
2022-08-29T10:38:15.639Z,28.06
2022-08-29T10:40:47.699Z,28.06
2022-08-29T10:43:23.144Z,28.06
2022-08-29T10:46:27.385Z,28.06
2022-08-29T10:49:06.683Z,28.06
2022-08-29T10:51:54.365Z,28.06
2022-08-29T10:54:35.740Z,28.06
2022-08-29T10:57:04.635Z,28.06
2022-08-29T11:00:04.802Z,28.06
2022-08-29T11:02:39.514Z,28.05
2022-08-29T11:05:15.192Z,28.07
2022-08-29T11:07:56.123Z,28.07
2022-08-29T11:10:27.329Z,28.07
2022-08-29T11:13:18.223Z,28.07
2022-08-29T11:15:55.643Z,28.08
2022-08-29T11:18:46.373Z,28.09
2022-08-29T11:21:29.383Z,28.08
2022-08-29T11:23:58.379Z,28.08
2022-08-29T11:26:33.728Z,28.09
2022-08-29T11:29:37.004Z,28.09
2022-08-29T11:32:09.675Z,28.09
2022-08-29T11:35:09.487Z,28.09
2022-08-29T11:37:48.212Z,28.09
2022-08-29T11:40:17.753Z,28.10
2022-08-29T11:42:52.072Z,28.10
2022-08-29T11:45:35.463Z,28.10
2022-08-29T11:48:31.299Z,28.09
2022-08-29T11:50:59.298Z,28.07
2022-08-29T11:56:12.184Z,28.11
2022-08-29T11:58:42.885Z,28.12
2022-08-29T12:01:35.328Z,28.09
2022-08-29T12:04:06.968Z,28.09
2022-08-29T12:06:39.793Z,28.11
2022-08-29T12:09:13.906Z,28.12
2022-08-29T12:11:59.329Z,28.11
2022-08-29T12:14:37.896Z,28.11
2022-08-29T12:17:51.142Z,28.11
2022-08-29T12:20:31.665Z,28.12
2022-08-29T12:23:03.996Z,28.11
2022-08-29T12:25:33.788Z,28.12
2022-08-29T12:28:06.028Z,28.12
2022-08-29T12:30:44.322Z,28.12
2022-08-29T12:33:53.963Z,28.13
2022-08-29T12:36:52.169Z,28.12
2022-08-29T12:39:27.846Z,28.12
2022-08-29T12:42:27.253Z,28.12
2022-08-29T12:45:19.084Z,28.07
2022-08-29T12:47:50.888Z,28.12
2022-08-29T12:50:32.662Z,28.12
2022-08-29T12:53:07.574Z,28.13
2022-08-29T12:55:42.071Z,28.12
2022-08-29T12:58:10.522Z,28.13
2022-08-29T13:00:37.306Z,28.13
2022-08-29T13:03:14.849Z,28.13
2022-08-29T13:05:42.548Z,28.14
2022-08-29T13:08:26.370Z,28.14
2022-08-29T13:10:57.332Z,28.14
2022-08-29T13:13:27.877Z,28.14
2022-08-29T13:15:57.554Z,28.14
2022-08-29T13:18:24.569Z,28.15
2022-08-29T13:21:19.103Z,28.14
2022-08-29T13:23:57.712Z,28.14
2022-08-29T13:26:29.003Z,28.14
2022-08-29T13:29:11.073Z,28.14
2022-08-29T13:31:39.597Z,28.15
2022-08-29T13:34:14.042Z,28.15
2022-08-29T13:36:46.840Z,28.15
2022-08-29T13:39:19.214Z,28.14
2022-08-29T13:44:48.825Z,28.14
2022-08-29T13:47:25.332Z,28.14
2022-08-29T13:49:58.032Z,28.14
2022-08-29T13:52:31.369Z,28.14
2022-08-29T13:54:59.442Z,28.12
2022-08-29T13:57:29.290Z,28.14
2022-08-29T13:59:57.794Z,28.15
2022-08-29T14:02:25.194Z,28.07
2022-08-29T14:04:52.072Z,28.16
2022-08-29T14:07:25.544Z,28.15
2022-08-29T14:09:52.560Z,28.12
2022-08-29T14:12:19.467Z,28.06
2022-08-29T14:14:48.249Z,28.16
2022-08-29T14:17:18.498Z,28.15
2022-08-29T14:19:47.068Z,28.17
2022-08-29T14:22:14.421Z,28.17
2022-08-29T14:24:41.781Z,28.16
2022-08-29T14:27:09.258Z,28.16
2022-08-29T14:29:36.063Z,28.16
2022-08-29T14:32:03.525Z,28.17
2022-08-29T14:34:32.407Z,28.16
2022-08-29T14:36:59.650Z,28.17
2022-08-29T14:39:26.612Z,28.16
2022-08-29T14:41:54.521Z,28.17
2022-08-29T14:44:22.137Z,28.17
2022-08-29T14:46:49.250Z,28.18
2022-08-29T14:49:16.048Z,28.17
2022-08-29T14:51:44.238Z,28.17
2022-08-29T14:54:11.423Z,28.18
2022-08-29T14:56:51.664Z,28.17
2022-08-29T14:59:19.650Z,28.17
2022-08-29T15:01:52.651Z,28.18
2022-08-29T15:04:35.037Z,28.17
2022-08-29T15:07:08.350Z,28.17
2022-08-29T15:09:35.156Z,28.13
2022-08-29T15:14:27.578Z,28.15
2022-08-29T15:16:54.252Z,28.14
2022-08-29T15:22:09.267Z,28.13
2022-08-29T15:24:36.300Z,28.13
2022-08-29T15:27:03.992Z,28.11
2022-08-29T15:29:30.940Z,28.09
2022-08-29T15:31:57.617Z,28.10
2022-08-29T15:34:25.764Z,28.10
2022-08-29T15:36:54.151Z,28.08
2022-08-29T15:39:21.569Z,28.09
2022-08-29T15:44:04.420Z,28.07
2022-08-29T15:46:31.035Z,28.07
2022-08-29T15:48:57.652Z,28.06
2022-08-29T15:51:27.409Z,28.04
2022-08-29T15:53:53.972Z,28.05
2022-08-29T15:56:20.631Z,28.04
2022-08-29T15:58:48.275Z,28.04
2022-08-29T16:01:15.916Z,28.03
2022-08-29T16:03:43.419Z,28.02
2022-08-29T16:06:10.874Z,28.02
2022-08-29T16:08:37.706Z,27.91
2022-08-29T16:11:12.676Z,28.01
2022-08-29T16:13:39.229Z,27.87
2022-08-29T16:16:06.740Z,28.01
2022-08-29T16:18:33.348Z,28.01
2022-08-29T16:21:00.142Z,28.01
2022-08-29T16:23:26.797Z,28.01
2022-08-29T16:25:53.482Z,28.00
2022-08-29T16:28:20.034Z,28.00
2022-08-29T16:30:49.568Z,27.99
2022-08-29T16:35:30.706Z,27.97
2022-08-29T16:38:02.817Z,27.97
2022-08-29T16:40:31.432Z,27.96
2022-08-29T16:42:58.121Z,27.94
2022-08-29T16:45:24.862Z,27.94
2022-08-29T16:47:56.741Z,27.94
2022-08-29T16:50:27.073Z,27.87
2022-08-29T16:52:54.207Z,27.93
2022-08-29T16:55:21.224Z,27.91
2022-08-29T16:58:07.910Z,27.92
2022-08-29T17:00:35.096Z,27.91
2022-08-29T17:05:33.717Z,27.89
2022-08-29T17:08:00.325Z,27.88
2022-08-29T17:10:26.908Z,27.88
2022-08-29T17:12:53.704Z,27.87
2022-08-29T17:15:20.297Z,27.87
2022-08-29T17:17:47.488Z,27.87
2022-08-29T17:20:14.988Z,27.89
2022-08-29T17:22:41.587Z,27.89
2022-08-29T17:25:08.578Z,27.90
2022-08-29T17:27:35.176Z,27.91
2022-08-29T17:30:03.585Z,27.91
2022-08-29T17:32:30.228Z,27.92
2022-08-29T17:34:56.896Z,27.85
2022-08-29T17:37:23.499Z,27.92
2022-08-29T17:39:50.041Z,27.92
2022-08-29T17:42:16.629Z,27.90
2022-08-29T17:44:45.479Z,27.87
2022-08-29T17:47:12.310Z,27.82
2022-08-29T17:49:39.535Z,27.76
2022-08-29T17:52:06.125Z,27.76
2022-08-29T17:54:32.737Z,27.75
2022-08-29T17:57:00.882Z,27.75
2022-08-29T17:59:31.371Z,27.76
2022-08-29T18:01:58.761Z,27.70
2022-08-29T18:04:26.891Z,27.55
2022-08-29T18:06:55.243Z,27.80
2022-08-29T18:09:22.893Z,27.81
2022-08-29T18:11:51.523Z,27.80
2022-08-29T18:14:20.484Z,27.83
2022-08-29T18:16:47.310Z,27.84
2022-08-29T18:19:14.213Z,27.85
2022-08-29T18:21:43.279Z,27.85
2022-08-29T18:24:13.815Z,27.85
2022-08-29T18:26:46.060Z,27.86
2022-08-29T18:29:13.688Z,27.87
2022-08-29T18:34:11.431Z,27.87
2022-08-29T18:36:41.165Z,27.87
2022-08-29T18:39:11.691Z,27.87
2022-08-29T18:41:38.723Z,27.85
2022-08-29T18:44:05.819Z,27.86
2022-08-29T18:46:33.347Z,27.86
2022-08-29T18:49:00.071Z,27.86
2022-08-29T18:51:27.603Z,27.82
2022-08-29T18:53:54.747Z,27.69
2022-08-29T18:56:21.453Z,27.65
2022-08-29T18:58:47.992Z,27.38
2022-08-29T19:01:27.871Z,27.12
2022-08-29T19:04:00.818Z,26.90
2022-08-29T19:06:27.781Z,26.72
2022-08-29T19:08:56.432Z,26.58
2022-08-29T19:11:25.329Z,26.45
2022-08-29T19:13:54.538Z,26.35
2022-08-29T19:16:21.987Z,26.26
2022-08-29T19:18:48.867Z,26.18
2022-08-29T19:21:15.494Z,26.11
2022-08-29T19:23:45.426Z,26.04
2022-08-29T19:26:17.181Z,25.96
2022-08-29T19:28:47.214Z,25.89
2022-08-29T19:31:15.673Z,25.79
2022-08-29T19:33:44.087Z,25.79
2022-08-29T19:36:10.881Z,25.74
2022-08-29T19:38:38.724Z,25.68
2022-08-29T19:41:09.582Z,25.60
2022-08-29T19:43:36.868Z,25.53
2022-08-29T19:46:11.002Z,25.47
2022-08-29T19:48:41.566Z,25.43
2022-08-29T19:51:10.225Z,25.39
2022-08-29T19:53:42.707Z,25.37
2022-08-29T19:56:12.382Z,25.32
2022-08-29T19:58:40.232Z,25.24
2022-08-29T20:01:09.225Z,25.19
2022-08-29T20:03:41.254Z,25.21
2022-08-29T20:06:08.668Z,25.20
2022-08-29T20:08:46.946Z,25.24
2022-08-29T20:11:19.028Z,25.33
2022-08-29T20:13:50.511Z,25.41
2022-08-29T20:16:18.820Z,25.51
2022-08-29T20:18:46.382Z,25.61
2022-08-29T20:21:16.366Z,25.69
2022-08-29T20:23:49.660Z,25.76
2022-08-29T20:26:17.402Z,25.81
2022-08-29T20:28:44.080Z,25.87
2022-08-29T20:31:11.020Z,25.93
2022-08-29T20:33:41.266Z,25.97
2022-08-29T20:36:27.329Z,26.00
2022-08-29T20:38:54.316Z,26.03
2022-08-29T20:41:21.723Z,26.07
2022-08-29T20:43:48.649Z,26.10
2022-08-29T20:46:15.373Z,26.13
2022-08-29T20:48:42.229Z,26.14
2022-08-29T20:51:10.127Z,26.16
2022-08-29T20:53:38.156Z,26.16
2022-08-29T20:56:05.527Z,26.15
2022-08-29T20:58:32.842Z,26.21
2022-08-29T21:01:00.766Z,26.22
2022-08-29T21:03:46.267Z,26.23
2022-08-29T21:06:12.867Z,26.25
2022-08-29T21:08:40.993Z,26.25
2022-08-29T21:11:07.832Z,26.26
2022-08-29T21:13:34.442Z,26.27
2022-08-29T21:16:07.449Z,26.28
2022-08-29T21:18:34.521Z,26.27
2022-08-29T21:21:01.373Z,26.29
2022-08-29T21:23:28.216Z,26.30
2022-08-29T21:25:57.784Z,26.31
2022-08-29T21:30:47.421Z,26.32
2022-08-29T21:33:14.016Z,26.32
2022-08-29T21:35:41.072Z,26.30
2022-08-29T21:38:08.525Z,26.34
2022-08-29T21:40:35.778Z,26.35
2022-08-29T21:43:10.601Z,26.36
2022-08-29T21:45:40.413Z,26.36
2022-08-29T21:48:07.102Z,26.36
2022-08-29T21:50:33.805Z,26.37
2022-08-29T21:53:00.489Z,26.37
2022-08-29T21:55:27.081Z,26.38
2022-08-29T21:57:58.247Z,26.38
2022-08-29T22:00:32.590Z,26.38
2022-08-29T22:03:01.436Z,26.39
2022-08-29T22:05:28.660Z,26.39
2022-08-29T22:07:58.365Z,26.34
2022-08-29T22:10:28.937Z,26.41
2022-08-29T22:12:55.596Z,26.40
2022-08-29T22:15:41.140Z,26.41
2022-08-29T22:18:09.090Z,26.33
2022-08-29T22:20:37.595Z,26.33
2022-08-29T22:23:06.660Z,26.40
2022-08-29T22:25:33.737Z,26.40
2022-08-29T22:28:00.795Z,26.41
2022-08-29T22:30:28.880Z,26.41
2022-08-29T22:33:00.088Z,26.42
2022-08-29T22:35:27.928Z,26.38
2022-08-29T22:37:54.859Z,26.42
2022-08-29T22:40:21.565Z,26.42
2022-08-29T22:42:48.300Z,26.42
2022-08-29T22:45:16.413Z,26.42
2022-08-29T22:47:44.363Z,26.42
2022-08-29T22:50:14.943Z,26.11
2022-08-29T22:52:41.688Z,26.42
2022-08-29T22:55:11.568Z,26.42
2022-08-29T22:57:38.405Z,26.42
2022-08-29T23:00:07.346Z,26.43
2022-08-29T23:02:34.090Z,26.41
2022-08-29T23:05:00.740Z,26.41
2022-08-29T23:07:27.360Z,26.42
2022-08-29T23:09:53.936Z,26.41
2022-08-29T23:12:20.527Z,26.40
2022-08-29T23:14:47.376Z,26.41
2022-08-29T23:17:15.235Z,26.41
2022-08-29T23:19:41.883Z,26.41
2022-08-29T23:22:10.980Z,26.41
2022-08-29T23:24:39.271Z,26.41
2022-08-29T23:27:07.960Z,26.41
2022-08-29T23:29:36.509Z,26.40
2022-08-29T23:32:08.856Z,26.40
2022-08-29T23:34:35.432Z,26.37
2022-08-29T23:37:02.125Z,26.40
2022-08-29T23:39:28.735Z,26.40
2022-08-29T23:41:55.717Z,26.39
2022-08-29T23:44:22.304Z,26.39
2022-08-29T23:46:48.942Z,26.39
2022-08-29T23:49:15.481Z,26.39
2022-08-29T23:51:42.235Z,26.32
2022-08-29T23:54:08.818Z,26.37
2022-08-29T23:56:35.491Z,26.38
2022-08-29T23:59:02.020Z,26.39
